Velarde, New Mexico
Current Conditions -  °F | °C
As of 11:55 PM on Monday 20 Oct 2014 (Local Time) from KLAM Reporting Station
Scattered Clouds Scattered Clouds  
Wind Chill: 50°   Ceiling: Unl
Heat Index: 50°   Visibility: 10mi
Dew Point: 41°   Wind: 6mph
Humidity: 70%   Direction: 200°SSW
Pressure: 30.27"   Gusts: NA
Location:  36.16°N, 105.97°W
Report Text: KLAM 210555Z AUTO 20005KT 10SM SCT110 10/05 A3027 RMK AO2 T01020050 10158 20102 401890072
Loading
Personal Weather Stations






























Interactive Weather Map New forecast layout! Learn more

10-Day Weather Forecast

Advertisements
Track Severe Weather on mobile